Map

Track Data

SID SEASON NUMBER BASIN SUBBASIN NAME ISO_TIME NATURE LAT LON WMO_WIND WMO_PRES WMO_AGENCY TRACK_TYPE DIST2LAND LANDFALL IFLAG USA_AGENCY USA_ATCF_ID USA_LAT USA_LON USA_RECORD USA_STATUS USA_WIND USA_PRES USA_SSHS USA_R34_NE USA_R34_SE USA_R34_SW USA_R34_NW USA_R50_NE USA_R50_SE USA_R50_SW USA_R50_NW USA_R64_NE USA_R64_SE USA_R64_SW USA_R64_NW USA_POCI USA_ROCI USA_RMW USA_EYE TOKYO_LAT TOKYO_LON TOKYO_GRADE TOKYO_WIND TOKYO_PRES TOKYO_R50_DIR TOKYO_R50_LONG TOKYO_R50_SHORT TOKYO_R30_DIR TOKYO_R30_LONG TOKYO_R30_SHORT TOKYO_LAND CMA_LAT CMA_LON CMA_CAT CMA_WIND CMA_PRES HKO_LAT HKO_LON HKO_CAT HKO_WIND HKO_PRES NEWDELHI_LAT NEWDELHI_LON NEWDELHI_GRADE NEWDELHI_WIND NEWDELHI_PRES NEWDELHI_CI NEWDELHI_DP NEWDELHI_POCI REUNION_LAT REUNION_LON REUNION_TYPE REUNION_WIND REUNION_PRES REUNION_TNUM REUNION_CI REUNION_RMW REUNION_R34_NE REUNION_R34_SE REUNION_R34_SW REUNION_R34_NW REUNION_R50_NE REUNION_R50_SE REUNION_R50_SW REUNION_R50_NW REUNION_R64_NE REUNION_R64_SE REUNION_R64_SW REUNION_R64_NW BOM_LAT BOM_LON BOM_TYPE BOM_WIND BOM_PRES BOM_TNUM BOM_CI BOM_RMW BOM_R34_NE BOM_R34_SE BOM_R34_SW BOM_R34_NW BOM_R50_NE BOM_R50_SE BOM_R50_SW BOM_R50_NW BOM_R64_NE BOM_R64_SE BOM_R64_SW BOM_R64_NW BOM_ROCI BOM_POCI BOM_EYE BOM_POS_METHOD BOM_PRES_METHOD NADI_LAT NADI_LON NADI_CAT NADI_WIND NADI_PRES WELLINGTON_LAT WELLINGTON_LON WELLINGTON_WIND WELLINGTON_PRES DS824_LAT DS824_LON DS824_STAGE DS824_WIND DS824_PRES TD9636_LAT TD9636_LON TD9636_STAGE TD9636_WIND TD9636_PRES TD9635_LAT TD9635_LON TD9635_WIND TD9635_PRES TD9635_ROCI NEUMANN_LAT NEUMANN_LON NEUMANN_CLASS NEUMANN_WIND NEUMANN_PRES MLC_LAT MLC_LON MLC_CLASS MLC_WIND MLC_PRES USA_GUST BOM_GUST BOM_GUST_PER REUNION_GUST REUNION_GUST_PER USA_SEAHGT USA_SEARAD_NE USA_SEARAD_SE USA_SEARAD_SW USA_SEARAD_NW STORM_SPEED STORM_DIR
1967230N15248 1967 76 EP MM JEWEL 1967-08-18 00:00:00 TS 15.3200 -111.620 45 hurdat_epa main 829 829 O________OO___ hurdat_epa EP091967 15.0000 -111.000 TS 45 0 15.0000 -111.000 TC 45 16.6000 -114.100 2 30 295
1967230N15248 1967 76 EP MM JEWEL 1967-08-18 03:00:00 TS 15.9463 -113.031 main 843 835 P________PP___ EP091967 15.7432 -112.645 TS 45 0 15.7432 -112.645 TC 45 16.7587 -114.578 2 28 295
1967230N15248 1967 76 EP MM JEWEL 1967-08-18 06:00:00 TS 16.5047 -114.291 45 hurdat_epa main 845 841 O________OP___ hurdat_epa EP091967 16.4000 -114.100 TS 45 0 16.4000 -114.100 TC 45 16.9235 -115.054 2 24 295
1967230N15248 1967 76 EP MM JEWEL 1967-08-18 09:00:00 TS 16.9533 -115.272 main 861 861 P________PP___ EP091967 16.9162 -115.208 TS 45 0 16.9162 -115.208 TC 45 17.1015 -115.529 2 18 296
1967230N15248 1967 76 EP MM JEWEL 1967-08-18 12:00:00 TS 17.3000 -116.000 45 hurdat_epa main 885 885 O________OO___ hurdat_epa EP091967 17.3000 -116.000 TS 45 0 17.3000 -116.000 TC 45 17.3000 -116.000 2 14 297
1967230N15248 1967 76 EP MM JEWEL 1967-08-18 15:00:00 TS 17.5682 -116.554 main 908 908 P________PP___ EP091967 17.5792 -116.576 TS 52 0 17.5792 -116.576 TC 52 17.5239 -116.467 2 11 298
1967230N15248 1967 76 EP MM JEWEL 1967-08-18 18:00:00 TS 17.7939 -116.987 60 hurdat_epa main 922 919 O________OP___ hurdat_epa EP091967 17.8000 -117.000 TS 60 0 17.8000 -117.000 TC 60 17.7693 -116.935 2 10 299
1967230N15248 1967 76 EP MM JEWEL 1967-08-18 21:00:00 TS 18.0398 -117.436 main 928 922 P________PP___ EP091967 18.0422 -117.443 TS 67 1 18.0422 -117.443 TC 67 18.0301 -117.411 2 10 300
1967230N15248 1967 76 EP MM JEWEL 1967-08-19 00:00:00 TS 18.3000 -117.900 75 hurdat_epa main 933 931 O________OO___ hurdat_epa EP091967 18.3000 -117.900 HU 75 1 18.3000 -117.900 TC 75 18.3000 -117.900 4 11 300
1967230N15248 1967 76 EP MM JEWEL 1967-08-19 03:00:00 TS 18.5944 -118.440 main 942 942 P________PP___ EP091967 18.6000 -118.442 HU 75 1 18.6000 -118.442 TC 75 18.5720 -118.431 4 12 300
1967230N15248 1967 76 EP MM JEWEL 1967-08-19 06:00:00 TS 18.8900 -118.994 75 hurdat_epa main 962 962 O________OP___ hurdat_epa EP091967 18.9000 -119.000 HU 75 1 18.9000 -119.000 TC 75 18.8502 -118.972 4 12 299
1967230N15248 1967 76 EP MM JEWEL 1967-08-19 09:00:00 TS 19.1516 -119.519 main 978 978 P________PP___ EP091967 19.1574 -119.523 HU 75 1 19.1574 -119.523 TC 75 19.1283 -119.503 4 11 298
1967230N15248 1967 76 EP MM JEWEL 1967-08-19 12:00:00 TS 19.4000 -120.000 75 hurdat_epa main 1004 1004 O________OO___ hurdat_epa EP091967 19.4000 -120.000 HU 75 1 19.4000 -120.000 TC 75 19.4000 -120.000 4 10 300
1967230N15248 1967 76 EP MM JEWEL 1967-08-19 15:00:00 TS 19.6495 -120.420 main 1024 1017 P________PP___ EP091967 19.6498 -120.415 HU 75 1 19.6498 -120.415 TC 75 19.6484 -120.441 4 9 303
1967230N15248 1967 76 EP MM JEWEL 1967-08-19 18:00:00 TS 19.8983 -120.809 75 hurdat_epa main 1039 1039 O________OP___ hurdat_epa EP091967 19.9000 -120.800 HU 75 1 19.9000 -120.800 TC 75 19.8917 -120.846 4 9 304
1967230N15248 1967 76 EP MM JEWEL 1967-08-19 21:00:00 TS 20.1418 -121.206 main 1052 1043 P________PP___ EP091967 20.1424 -121.200 HU 60 0 20.1424 -121.200 TC 60 20.1391 -121.228 4 9 304
1967230N15248 1967 76 EP MM JEWEL 1967-08-20 00:00:00 TS 20.4000 -121.600 45 hurdat_epa main 1054 1050 O________OO___ hurdat_epa EP091967 20.4000 -121.600 TS 45 0 20.4000 -121.600 TC 45 20.4000 -121.600 4 9 306
1967230N15248 1967 76 EP MM JEWEL 1967-08-20 03:00:00 TS 20.6903 -122.005 main 1055 1052 P________PP___ EP091967 20.6925 -122.008 TS 45 0 20.6925 -122.008 TC 45 20.6814 -121.995 4 10 309
1967230N15248 1967 76 EP MM JEWEL 1967-08-20 06:00:00 TS 20.9955 -122.396 45 hurdat_epa main 1058 1056 O________OP___ hurdat_epa EP091967 21.0000 -122.400 TS 45 0 21.0000 -122.400 TC 45 20.9774 -122.380 4 9 310
1967230N15248 1967 76 EP MM JEWEL 1967-08-20 09:00:00 TS 21.2909 -122.762 main 1064 1056 P________PP___ EP091967 21.2924 -122.765 TS 45 0 21.2924 -122.765 TC 45 21.2846 -122.751 4 9 313
1967230N15248 1967 76 EP MM JEWEL 1967-08-20 12:00:00 TS 21.6000 -123.100 45 hurdat_epa main 1064 1057 O________OO___ hurdat_epa EP091967 21.6000 -123.100 TS 45 0 21.6000 -123.100 TC 45 21.6000 -123.100 4 9 317
1967230N15248 1967 76 EP MM JEWEL 1967-08-20 15:00:00 TS 21.9475 -123.412 main 1066 1059 P________PP___ EP091967 21.9499 -123.408 TS 45 0 21.9499 -123.408 TC 45 21.9378 -123.430 4 9 321
1967230N15248 1967 76 EP MM JEWEL 1967-08-20 18:00:00 TS 22.2959 -123.708 45 hurdat_epa main 1063 1063 O________OP___ hurdat_epa EP091967 22.3000 -123.700 TS 45 0 22.3000 -123.700 TC 45 22.2796 -123.738 4 9 320
1967230N15248 1967 76 EP MM JEWEL 1967-08-20 21:00:00 TS 22.6133 -124.011 main 1069 1069 P________PP___ EP091967 22.6150 -124.008 TS 45 0 22.6150 -124.008 TC 45 22.6067 -124.027 4 8 318
1967230N15248 1967 76 EP MM JEWEL 1967-08-21 00:00:00 TS 22.9000 -124.300 45 hurdat_epa main 1076 1073 O________OO___ hurdat_epa EP091967 22.9000 -124.300 TS 45 0 22.9000 -124.300 TC 45 22.9000 -124.300 2 8 318
1967230N15248 1967 76 EP MM JEWEL 1967-08-21 03:00:00 TS 23.1672 -124.558 main 1085 1085 P________PP___ EP091967 23.1724 -124.558 TS 45 0 23.1724 -124.558 TC 45 23.1461 -124.561 2 7 317
1967230N15248 1967 76 EP MM JEWEL 1967-08-21 06:00:00 TS 23.3926 -124.802 45 hurdat_epa main 1093 1093 O________OP___ hurdat_epa EP091967 23.4000 -124.800 TS 45 0 23.4000 -124.800 TC 45 23.3528 -124.812 2 6 311
1967230N15248 1967 76 EP MM JEWEL 1967-08-21 09:00:00 TS 23.5681 -125.058 main 1109 1109 P________PP___ EP091967 23.5725 -125.058 TS 45 0 23.5725 -125.058 TC 45 23.5331 -125.058 2 6 304
1967230N15248 1967 76 EP MM JEWEL 1967-08-21 12:00:00 TS 23.7000 -125.300 45 hurdat_epa main 1123 1123 O________OO___ hurdat_epa EP091967 23.7000 -125.300 TS 45 0 23.7000 -125.300 TC 45 23.7000 -125.300 2 5 301
1967230N15248 1967 76 EP MM JEWEL 1967-08-21 15:00:00 TS 23.8150 -125.515 main 1136 1136 P________P____ EP091967 23.8150 -125.515 TS 45 0 23.8150 -125.515 TC 45 2 4 299
1967230N15248 1967 76 EP MM JEWEL 1967-08-21 18:00:00 MX 23.9000 -125.700 45 hurdat_epa main 1150 1150 O________O____ hurdat_epa EP091967 23.9000 -125.700 TS 45 0 23.9000 -125.700 45 2 3 294
1967230N15248 1967 76 EP MM JEWEL 1967-08-21 21:00:00 MX 23.9575 -125.857 main 1165 1165 P________P____ EP091967 23.9575 -125.857 TS 45 0 23.9575 -125.857 45 2 3 290
1967230N15248 1967 76 EP MM JEWEL 1967-08-22 00:00:00 MX 24.0000 -126.000 45 hurdat_epa main 1174 O________O____ hurdat_epa EP091967 24.0000 -126.000 TS 45 0 24.0000 -126.000 45 3 288

About IBTrACS Database

This database is a web-friendly format of International Best Track Archive for Climate Stewardship (IBTrACS), a global best track data archive curated by NOAA dating back to 1842.

Updated: 2021-11-26